createdAt,value
2023-02-03T00:01:37.525Z,100
2023-02-03T00:03:17.752Z,100
2023-02-03T00:04:57.921Z,100
2023-02-03T00:06:38.106Z,100
2023-02-03T00:08:18.290Z,100
2023-02-03T00:09:58.517Z,100
2023-02-03T00:11:38.653Z,100
2023-02-03T00:13:18.839Z,100
2023-02-03T00:14:58.999Z,100
2023-02-03T00:16:39.244Z,98.95
2023-02-03T00:18:19.355Z,98.09
2023-02-03T00:19:59.508Z,97.65
2023-02-03T00:21:39.701Z,97.26
2023-02-03T00:25:00.107Z,96.21
2023-02-03T00:26:40.278Z,95.89
2023-02-03T00:28:20.511Z,95.76
2023-02-03T00:30:00.679Z,95.52
2023-02-03T00:31:40.956Z,95.4
2023-02-03T00:33:20.979Z,94.81
2023-02-03T00:35:01.218Z,94.56
2023-02-03T00:36:43.064Z,94.31
2023-02-03T00:38:21.617Z,93.73
2023-02-03T00:40:01.833Z,93.78
2023-02-03T00:41:42.038Z,93.63
2023-02-03T00:43:22.224Z,93.52
2023-02-03T00:45:02.411Z,93.26
2023-02-03T00:46:42.623Z,93.39
2023-02-03T00:48:22.770Z,93.56
2023-02-03T00:50:02.953Z,93.57
2023-02-03T00:51:43.154Z,93.26
2023-02-03T00:53:23.320Z,93.22
2023-02-03T00:55:03.561Z,93.13
2023-02-03T00:56:43.701Z,92.65
2023-02-03T00:58:23.901Z,92.69
2023-02-03T01:00:04.100Z,92.18
2023-02-03T01:01:44.282Z,92.36
2023-02-03T01:03:24.432Z,92.44
2023-02-03T01:05:04.628Z,92.23
2023-02-03T01:06:44.819Z,92.24
2023-02-03T01:08:25.007Z,92.22
2023-02-03T01:10:05.217Z,92.34
2023-02-03T01:11:45.445Z,92.61
2023-02-03T01:13:25.604Z,92.73
2023-02-03T01:15:05.802Z,93.06
2023-02-03T01:16:46.079Z,93.21
2023-02-03T01:18:26.190Z,93.21
2023-02-03T01:20:06.402Z,93.44
2023-02-03T01:21:46.601Z,93.58
2023-02-03T01:23:26.803Z,94.03
2023-02-03T01:25:07.004Z,94.11
2023-02-03T01:26:47.216Z,94.11
2023-02-03T01:28:27.406Z,94.16
2023-02-03T01:30:07.545Z,94.21
2023-02-03T01:31:47.837Z,94.15
2023-02-03T01:33:27.903Z,94.24
2023-02-03T01:35:08.083Z,94.27
2023-02-03T01:36:48.284Z,93.6
2023-02-03T01:38:28.563Z,93.56
2023-02-03T01:40:08.752Z,93.4
2023-02-03T01:41:48.936Z,93.5
2023-02-03T01:43:29.166Z,93.48
2023-02-03T01:45:10.938Z,93.1
2023-02-03T01:46:49.543Z,92.87
2023-02-03T01:48:29.677Z,92.68
2023-02-03T01:50:09.928Z,92.52
2023-02-03T01:51:50.068Z,92.13
2023-02-03T01:53:30.295Z,92.26
2023-02-03T01:55:10.477Z,91.69
2023-02-03T01:56:50.719Z,91.61
2023-02-03T01:58:30.887Z,91.53
2023-02-03T02:00:11.062Z,91.6
2023-02-03T02:01:51.268Z,91.33
2023-02-03T02:03:31.500Z,91.32
2023-02-03T02:05:11.709Z,91.45
2023-02-03T02:06:51.918Z,91.46
2023-02-03T02:08:32.091Z,91.15
2023-02-03T02:10:12.297Z,91.16
2023-02-03T02:11:52.481Z,90.9
2023-02-03T02:13:32.621Z,90.86
2023-02-03T02:15:12.767Z,90.9
2023-02-03T02:16:53.015Z,90.62
2023-02-03T02:18:33.177Z,90.73
2023-02-03T02:20:13.397Z,91.07
2023-02-03T02:21:53.592Z,90.96
2023-02-03T02:23:33.698Z,90.84
2023-02-03T02:25:13.946Z,91.01
2023-02-03T02:26:54.157Z,90.88
2023-02-03T02:28:34.397Z,91.23
2023-02-03T02:30:14.566Z,90.78
2023-02-03T02:31:54.792Z,90.85
2023-02-03T02:33:34.944Z,90.62
2023-02-03T02:35:15.092Z,90.2
2023-02-03T02:36:55.294Z,90.1
2023-02-03T02:38:35.504Z,90.33
2023-02-03T02:40:15.692Z,90.19
2023-02-03T02:41:55.839Z,90.3
2023-02-03T02:43:36.021Z,89.99
2023-02-03T02:45:16.253Z,90.34
2023-02-03T02:46:56.430Z,89.89
2023-02-03T02:48:36.644Z,89.49
2023-02-03T02:50:16.825Z,89.21
2023-02-03T02:51:56.980Z,88.76
2023-02-03T02:53:37.177Z,88.71
2023-02-03T02:55:17.361Z,89.1
2023-02-03T02:56:57.560Z,89.25
2023-02-03T02:58:37.746Z,89.57
2023-02-03T03:00:17.990Z,89.3
2023-02-03T03:01:58.130Z,89.1
2023-02-03T03:03:38.385Z,89.24
2023-02-03T03:05:18.616Z,89.23
2023-02-03T03:06:58.772Z,89.79
2023-02-03T03:08:38.972Z,89.81
2023-02-03T03:10:19.205Z,89.36
2023-02-03T03:11:59.368Z,89.08
2023-02-03T03:13:39.559Z,88.74
2023-02-03T03:15:19.719Z,88.7
2023-02-03T03:18:40.106Z,89.06
2023-02-03T03:20:20.329Z,89.31
2023-02-03T03:22:00.506Z,88.72
2023-02-03T03:23:40.673Z,88.93
2023-02-03T03:25:20.852Z,89.05
2023-02-03T03:27:00.984Z,88.86
2023-02-03T03:28:41.189Z,89.09
2023-02-03T03:30:21.419Z,89
2023-02-03T03:32:01.637Z,88.54
2023-02-03T03:33:41.725Z,88.76
2023-02-03T03:35:21.919Z,88.54
2023-02-03T03:37:02.065Z,88.56
2023-02-03T03:38:42.285Z,88.58
2023-02-03T03:40:22.527Z,88.6
2023-02-03T03:42:02.691Z,88.14
2023-02-03T03:43:42.897Z,88.18
2023-02-03T03:45:23.063Z,87.76
2023-02-03T03:47:03.336Z,87.74
2023-02-03T03:48:43.521Z,87.95
2023-02-03T03:50:23.711Z,87.79
2023-02-03T03:52:03.856Z,87.76
2023-02-03T03:53:44.140Z,86.76
2023-02-03T03:55:24.387Z,87.28
2023-02-03T03:57:04.580Z,87.24
2023-02-03T03:58:44.776Z,87.57
2023-02-03T04:00:25.470Z,87.42
2023-02-03T04:02:05.465Z,87.06
2023-02-03T04:03:45.387Z,87.49
2023-02-03T04:05:25.625Z,87.5
2023-02-03T04:07:05.845Z,86.94
2023-02-03T04:08:46.009Z,87.08
2023-02-03T04:10:26.693Z,87.16
2023-02-03T04:12:06.450Z,86.99
2023-02-03T04:13:46.628Z,87.28
2023-02-03T04:15:26.876Z,87.35
2023-02-03T04:17:07.074Z,87.33
2023-02-03T04:18:47.279Z,87.21
2023-02-03T04:20:27.817Z,87.01
2023-02-03T04:23:47.826Z,87.32
2023-02-03T04:25:28.022Z,87.3
2023-02-03T04:27:08.288Z,87.57
2023-02-03T04:28:48.428Z,87.09
2023-02-03T04:30:29.066Z,86.85
2023-02-03T04:32:08.948Z,86.35
2023-02-03T04:33:49.107Z,86.65
2023-02-03T04:35:29.339Z,86.92
2023-02-03T04:37:09.534Z,86.64
2023-02-03T04:38:49.786Z,86.7
2023-02-03T04:40:30.339Z,86.88
2023-02-03T04:42:10.238Z,86.72
2023-02-03T04:43:50.397Z,86.79
2023-02-03T04:45:30.637Z,86.8
2023-02-03T04:47:10.748Z,86.79
2023-02-03T04:48:51.003Z,86.94
2023-02-03T04:50:31.214Z,86.54
2023-02-03T04:52:11.391Z,86.05
2023-02-03T04:53:51.512Z,85.49
2023-02-03T04:55:31.695Z,85.69
2023-02-03T04:57:11.847Z,85.56
2023-02-03T04:58:52.088Z,85.66
2023-02-03T05:00:32.317Z,85.49
2023-02-03T05:02:12.488Z,85.88
2023-02-03T05:03:52.691Z,86.4
2023-02-03T05:05:32.972Z,85.52
2023-02-03T05:07:13.153Z,85.63
2023-02-03T05:08:53.370Z,85.4
2023-02-03T05:10:33.559Z,85.99
2023-02-03T05:12:13.704Z,86.21
2023-02-03T05:13:53.921Z,86.23
2023-02-03T05:15:41.344Z,85.95
2023-02-03T05:17:21.175Z,85.91
2023-02-03T05:19:01.381Z,85.69
2023-02-03T05:20:41.569Z,85.38
2023-02-03T05:22:21.760Z,85.12
2023-02-03T05:24:01.915Z,85.16
2023-02-03T05:25:42.136Z,85.23
2023-02-03T05:27:22.411Z,85.78
2023-02-03T05:29:02.616Z,85.59
2023-02-03T05:30:42.869Z,85.47
2023-02-03T05:32:22.954Z,85
2023-02-03T05:34:03.235Z,84.88
2023-02-03T05:35:43.414Z,85.05
2023-02-03T05:37:23.629Z,85.41
2023-02-03T05:39:03.871Z,85.14
2023-02-03T05:40:44.037Z,85.07
2023-02-03T05:42:24.197Z,85.48
2023-02-03T05:44:04.346Z,85.67
2023-02-03T05:45:44.578Z,84.74
2023-02-03T05:47:24.714Z,84.5
2023-02-03T05:49:04.889Z,84.9
2023-02-03T05:50:45.123Z,84.52
2023-02-03T05:52:25.321Z,85.01
2023-02-03T05:54:05.510Z,85.11
2023-02-03T05:55:45.732Z,85.2
2023-02-03T05:57:26.019Z,84.88
2023-02-03T05:59:06.228Z,85.19
2023-02-03T06:00:46.444Z,85.21
2023-02-03T06:02:26.650Z,84.88
2023-02-03T06:04:07.144Z,84.64
2023-02-03T06:05:47.126Z,84.99
2023-02-03T06:07:27.365Z,84.58
2023-02-03T06:09:07.581Z,84.96
2023-02-03T06:10:47.752Z,85.24
2023-02-03T06:12:29.354Z,84.91
2023-02-03T06:14:08.150Z,84.7
2023-02-03T06:15:48.307Z,84.74
2023-02-03T06:17:28.563Z,84.97
2023-02-03T06:19:08.712Z,84.97
2023-02-03T06:20:48.896Z,84.67
2023-02-03T06:22:29.098Z,84.75
2023-02-03T06:24:09.344Z,84.99
2023-02-03T06:25:49.557Z,84.78
2023-02-03T06:27:29.794Z,84.85
2023-02-03T06:29:10.000Z,85.01
2023-02-03T06:30:50.324Z,85.31
2023-02-03T06:32:30.329Z,85.01
2023-02-03T06:34:10.472Z,84.88
2023-02-03T06:35:50.674Z,85.56
2023-02-03T06:37:30.901Z,85.61
2023-02-03T06:39:15.994Z,85.47
2023-02-03T06:40:56.207Z,85.86
2023-02-03T06:42:36.391Z,85.79
2023-02-03T06:44:16.560Z,85.82
2023-02-03T06:45:56.808Z,85.76
2023-02-03T06:47:36.898Z,86.18
2023-02-03T06:49:17.161Z,86.22
2023-02-03T06:50:57.326Z,86.33
2023-02-03T06:52:37.557Z,86.59
2023-02-03T06:54:17.748Z,86.9
2023-02-03T06:55:57.968Z,87.01
2023-02-03T06:57:38.130Z,87.09
2023-02-03T06:59:18.409Z,87.2
2023-02-03T07:00:58.781Z,87.22
2023-02-03T07:02:39.072Z,87.4
2023-02-03T07:04:19.350Z,87.56
2023-02-03T07:05:59.557Z,87.71
2023-02-03T07:07:39.796Z,88.07
2023-02-03T07:09:19.968Z,88.11
2023-02-03T07:11:00.171Z,88.38
2023-02-03T07:12:40.396Z,88.79
2023-02-03T07:14:20.609Z,89
2023-02-03T07:16:00.827Z,88.85
2023-02-03T07:17:40.955Z,88.89
2023-02-03T07:19:21.145Z,89.17
2023-02-03T07:21:01.354Z,89.07
2023-02-03T07:22:41.548Z,89.49
2023-02-03T07:24:21.820Z,89.63
2023-02-03T07:26:01.994Z,89.76
2023-02-03T07:27:42.252Z,90.03
2023-02-03T07:29:22.374Z,90.22
2023-02-03T07:31:02.685Z,90.62
2023-02-03T07:32:42.767Z,90.67
2023-02-03T07:34:22.945Z,91
2023-02-03T07:36:03.178Z,90.98
2023-02-03T07:37:43.367Z,91.02
2023-02-03T07:39:23.678Z,91.38
2023-02-03T07:41:03.736Z,91.58
2023-02-03T07:42:43.967Z,91.77
2023-02-03T07:44:24.184Z,91.85
2023-02-03T07:46:04.312Z,91.94
2023-02-03T07:47:44.472Z,91.68
2023-02-03T07:49:24.679Z,91.82
2023-02-03T07:51:04.893Z,91.75
2023-02-03T07:52:45.098Z,91.82
2023-02-03T07:54:25.305Z,91.59
2023-02-03T07:56:05.550Z,91.53
2023-02-03T07:57:45.742Z,91.5
2023-02-03T07:59:26.006Z,91.55
2023-02-03T08:01:06.171Z,91.43
2023-02-03T08:02:46.387Z,91.57
2023-02-03T08:04:26.616Z,91.62
2023-02-03T08:06:06.895Z,91.72
2023-02-03T08:07:47.132Z,91.34
2023-02-03T08:09:27.346Z,91.18
2023-02-03T08:11:07.548Z,91.18
2023-02-03T08:12:47.722Z,91.07
2023-02-03T08:14:27.928Z,90.88
2023-02-03T08:16:08.222Z,91.05
2023-02-03T08:17:48.390Z,90.97
2023-02-03T08:19:28.550Z,90.84
2023-02-03T08:21:08.758Z,90.84
2023-02-03T08:22:48.925Z,90.97
2023-02-03T08:24:29.164Z,91.12
2023-02-03T08:26:09.381Z,91.03
2023-02-03T08:27:49.653Z,91.16
2023-02-03T08:29:29.787Z,91.33
2023-02-03T08:31:10.272Z,91.24
2023-02-03T08:32:50.258Z,91.22
2023-02-03T08:34:30.475Z,91.25
2023-02-03T08:36:10.707Z,91.13
2023-02-03T08:37:50.860Z,91.21
2023-02-03T08:39:31.096Z,91.39
2023-02-03T08:41:11.319Z,91.39
2023-02-03T08:42:51.470Z,91.64
2023-02-03T08:44:31.676Z,92.01
2023-02-03T08:46:11.895Z,92.22
2023-02-03T08:47:52.100Z,92.49
2023-02-03T08:49:32.290Z,92.65
2023-02-03T08:51:12.474Z,92.59
2023-02-03T08:52:52.663Z,92.5
2023-02-03T08:54:32.865Z,92.4
2023-02-03T08:56:13.156Z,92.5
2023-02-03T08:57:53.363Z,92.45
2023-02-03T08:59:33.612Z,92.36
2023-02-03T09:01:13.875Z,92.4
2023-02-03T09:02:53.923Z,92.36
2023-02-03T09:04:34.265Z,92.46
2023-02-03T09:06:14.378Z,92.52
2023-02-03T09:07:54.598Z,92.77
2023-02-03T09:09:34.848Z,92.8
2023-02-03T09:11:15.056Z,92.42
2023-02-03T09:12:55.272Z,92.42
2023-02-03T09:14:35.537Z,92.6
2023-02-03T09:16:15.808Z,92.28
2023-02-03T09:17:55.983Z,92.63
2023-02-03T09:19:36.807Z,92.54
2023-02-03T09:21:31.690Z,92.65
2023-02-03T09:22:56.554Z,92.82
2023-02-03T09:24:36.715Z,92.73
2023-02-03T09:26:16.918Z,92.55
2023-02-03T09:27:57.216Z,92.45
2023-02-03T09:29:37.358Z,92.52
2023-02-03T09:31:17.725Z,92.36
2023-02-03T09:32:57.671Z,92.5
2023-02-03T09:34:37.869Z,92.53
2023-02-03T09:36:18.055Z,92.58
2023-02-03T09:37:58.227Z,91.84
2023-02-03T09:39:38.438Z,92.03
2023-02-03T09:41:18.621Z,92.28
2023-02-03T09:42:58.802Z,91.91
2023-02-03T09:44:38.993Z,91.88
2023-02-03T09:46:19.368Z,92.02
2023-02-03T09:47:59.465Z,91.97
2023-02-03T09:49:39.764Z,91.73
2023-02-03T09:51:19.819Z,92.03
2023-02-03T09:52:59.997Z,91.91
2023-02-03T09:54:40.217Z,92.12
2023-02-03T09:56:20.401Z,92.23
2023-02-03T09:58:00.607Z,92.17
2023-02-03T09:59:40.860Z,92.13
2023-02-03T10:01:21.085Z,92.25
2023-02-03T10:03:01.379Z,92.45
2023-02-03T10:04:41.444Z,92.44
2023-02-03T10:06:21.666Z,92.35
2023-02-03T10:08:01.876Z,92.62
2023-02-03T10:09:42.109Z,92.81
2023-02-03T10:11:22.328Z,92.66
2023-02-03T10:13:02.513Z,92.48
2023-02-03T10:14:42.769Z,92.71
2023-02-03T10:16:23.020Z,92.89
2023-02-03T10:18:03.163Z,92.67
2023-02-03T10:19:43.352Z,92.43
2023-02-03T10:21:23.563Z,92.11
2023-02-03T10:23:03.771Z,92.32
2023-02-03T10:24:43.949Z,92.29
2023-02-03T10:26:24.144Z,91.93
2023-02-03T10:28:04.538Z,91.82
2023-02-03T10:29:44.675Z,91.86
2023-02-03T10:31:25.097Z,91.86
2023-02-03T10:33:05.243Z,91.72
2023-02-03T10:34:45.404Z,91.58
2023-02-03T10:36:25.618Z,91.65
2023-02-03T10:38:05.856Z,91.47
2023-02-03T10:39:46.072Z,91.17
2023-02-03T10:41:26.267Z,91.22
2023-02-03T10:43:06.491Z,91.29
2023-02-03T10:44:46.659Z,91.13
2023-02-03T10:46:26.949Z,91.22
2023-02-03T10:48:07.196Z,91.38
2023-02-03T10:49:47.339Z,91.62
2023-02-03T10:51:27.535Z,92.03
2023-02-03T10:53:07.726Z,92.3
2023-02-03T10:54:47.920Z,92.68
2023-02-03T10:56:28.171Z,92.94
2023-02-03T10:58:08.329Z,93.25
2023-02-03T10:59:48.513Z,93.21
2023-02-03T11:01:28.820Z,93.19
2023-02-03T11:03:09.073Z,93.5
2023-02-03T11:04:49.203Z,93.39
2023-02-03T11:06:29.399Z,93.65
2023-02-03T11:08:09.606Z,93.97
2023-02-03T11:09:49.768Z,93.78
2023-02-03T11:11:30.059Z,93.86
2023-02-03T11:13:10.283Z,93.84
2023-02-03T11:14:50.569Z,93.84
2023-02-03T11:16:30.732Z,94.03
2023-02-03T11:18:10.957Z,94.31
2023-02-03T11:19:51.212Z,94.46
2023-02-03T11:21:31.387Z,94.41
2023-02-03T11:23:11.557Z,94.36
2023-02-03T11:24:51.754Z,94.35
2023-02-03T11:26:31.984Z,94.53
2023-02-03T11:28:12.198Z,94.6
2023-02-03T11:29:52.362Z,94.34
2023-02-03T11:31:32.695Z,94.36
2023-02-03T11:33:12.803Z,94.26
2023-02-03T11:34:52.972Z,94.05
2023-02-03T11:36:33.251Z,93.9
2023-02-03T11:38:13.468Z,92.99
2023-02-03T11:39:53.665Z,93.25
2023-02-03T11:41:33.931Z,92.75
2023-02-03T11:43:14.146Z,91.98
2023-02-03T11:44:54.347Z,92.04
2023-02-03T11:46:34.586Z,92.07
2023-02-03T11:48:14.784Z,91.99
2023-02-03T11:49:55.002Z,91.91
2023-02-03T11:51:35.173Z,92.37
2023-02-03T11:53:15.363Z,92.24
2023-02-03T11:54:55.570Z,92
2023-02-03T11:56:35.769Z,91.71
2023-02-03T11:58:15.992Z,91.09
2023-02-03T11:59:56.216Z,90.5
2023-02-03T12:01:36.480Z,90.75
2023-02-03T12:03:16.678Z,90.67
2023-02-03T12:04:58.698Z,90.73
2023-02-03T12:06:37.058Z,90.91
2023-02-03T12:08:17.298Z,90.73
2023-02-03T12:09:57.483Z,90.71
2023-02-03T12:11:37.647Z,91.02
2023-02-03T12:13:17.788Z,91.44
2023-02-03T12:14:58.029Z,91.69
2023-02-03T12:16:38.379Z,92.34
2023-02-03T12:18:18.524Z,92.76
2023-02-03T12:19:58.670Z,93.34
2023-02-03T12:21:38.941Z,93.75
2023-02-03T12:23:19.192Z,93.75
2023-02-03T12:24:59.361Z,93.21
2023-02-03T12:28:32.486Z,94.06
2023-02-03T12:30:00.040Z,91.77
2023-02-03T12:31:40.282Z,92.03
2023-02-03T12:33:20.492Z,92.23
2023-02-03T12:35:00.709Z,91.23
2023-02-03T12:36:40.895Z,90.76
2023-02-03T12:38:21.135Z,89.66
2023-02-03T12:40:01.394Z,89.57
2023-02-03T12:41:41.552Z,88.83
2023-02-03T12:43:21.780Z,88.87
2023-02-03T12:45:01.936Z,89.04
2023-02-03T12:46:42.145Z,89.04
2023-02-03T12:48:22.331Z,88.29
2023-02-03T12:50:02.544Z,89.18
2023-02-03T12:51:42.695Z,88.98
2023-02-03T12:53:22.912Z,88.57
2023-02-03T12:55:03.150Z,88.16
2023-02-03T12:56:43.366Z,87.68
2023-02-03T12:58:23.559Z,88.09
2023-02-03T13:00:03.764Z,87.52
2023-02-03T13:01:44.006Z,87.25
2023-02-03T13:03:24.205Z,86.83
2023-02-03T13:05:04.494Z,87.24
2023-02-03T13:06:44.698Z,87.35
2023-02-03T13:08:24.902Z,87.52
2023-02-03T13:10:05.127Z,87.44
2023-02-03T13:11:45.245Z,87.46
2023-02-03T13:13:25.428Z,87.1
2023-02-03T13:15:05.648Z,87.23
2023-02-03T13:16:45.915Z,86.69
2023-02-03T13:18:25.972Z,86.96
2023-02-03T13:20:06.229Z,86.8
2023-02-03T13:21:46.422Z,86.67
2023-02-03T13:23:26.677Z,86.67
2023-02-03T13:26:47.078Z,87.16
2023-02-03T13:28:27.249Z,87.57
2023-02-03T13:30:07.473Z,87.45
2023-02-03T13:31:47.751Z,87.77
2023-02-03T13:33:27.928Z,87.7
2023-02-03T13:35:08.100Z,87.73
2023-02-03T13:36:48.372Z,87.92
2023-02-03T13:38:28.552Z,87.91
2023-02-03T13:40:08.748Z,87.1
2023-02-03T13:41:48.963Z,87.01
2023-02-03T13:43:38.176Z,86.34
2023-02-03T13:45:09.355Z,85.79
2023-02-03T13:46:49.585Z,85.79
2023-02-03T13:48:29.765Z,85.25
2023-02-03T13:50:09.977Z,85.77
2023-02-03T13:51:50.188Z,85.4
2023-02-03T13:53:30.354Z,85.31
2023-02-03T13:55:10.547Z,85.36
2023-02-03T13:56:50.739Z,84.76
2023-02-03T13:58:31.077Z,84.89
2023-02-03T14:00:11.244Z,85.32
2023-02-03T14:01:51.357Z,84.99
2023-02-03T14:03:31.662Z,85.08
2023-02-03T14:05:11.822Z,84.81
2023-02-03T14:06:52.049Z,85.11
2023-02-03T14:08:32.238Z,84.17
2023-02-03T14:10:12.495Z,84.09
2023-02-03T14:11:52.621Z,84.29
2023-02-03T14:13:32.797Z,84.09
2023-02-03T14:15:13.019Z,84.42
2023-02-03T14:16:54.982Z,84.73
2023-02-03T14:18:33.458Z,84.85
2023-02-03T14:20:13.677Z,84.61
2023-02-03T14:21:53.897Z,84.58
2023-02-03T14:23:34.102Z,84.34
2023-02-03T14:25:14.269Z,83.87
2023-02-03T14:26:54.481Z,84.14
2023-02-03T14:28:34.682Z,84.14
2023-02-03T14:30:14.850Z,84.13
2023-02-03T14:31:55.280Z,84.28
2023-02-03T14:33:35.255Z,84.52
2023-02-03T14:35:15.458Z,84.48
2023-02-03T14:36:55.760Z,84.61
2023-02-03T14:38:35.938Z,84.82
2023-02-03T14:40:16.190Z,84.55
2023-02-03T14:41:56.391Z,84.44
2023-02-03T14:43:36.614Z,84.52
2023-02-03T14:45:16.853Z,84.53
2023-02-03T14:46:57.196Z,84.58
2023-02-03T14:48:37.241Z,84.42
2023-02-03T14:50:17.488Z,84.16
2023-02-03T14:51:57.738Z,83.31
2023-02-03T14:53:37.942Z,83.32
2023-02-03T14:55:18.194Z,82.19
2023-02-03T14:56:58.412Z,81.76
2023-02-03T14:58:38.554Z,81.12
2023-02-03T15:00:18.816Z,79.52
2023-02-03T15:02:04.121Z,79.44
2023-02-03T15:03:44.382Z,77.98
2023-02-03T15:05:24.660Z,78.43
2023-02-03T15:07:04.812Z,77.29
2023-02-03T15:08:45.030Z,77.18
2023-02-03T15:10:28.313Z,77.56
2023-02-03T15:12:05.464Z,77.07
2023-02-03T15:13:45.709Z,77.57
2023-02-03T15:15:26.208Z,77.24
2023-02-03T15:17:06.168Z,77.86
2023-02-03T15:18:46.380Z,77.45
2023-02-03T15:20:26.598Z,77.71
2023-02-03T15:22:06.976Z,77.51
2023-02-03T15:23:46.968Z,77.43
2023-02-03T15:25:27.512Z,78.09
2023-02-03T15:27:07.319Z,77.99
2023-02-03T15:28:47.560Z,78.68
2023-02-03T15:30:27.873Z,77.06
2023-02-03T15:32:08.063Z,75.99
2023-02-03T15:33:48.180Z,75.57
2023-02-03T15:35:28.789Z,74.73
2023-02-03T15:37:08.604Z,75.4
2023-02-03T15:38:48.785Z,74.53
2023-02-03T15:40:28.983Z,73.85
2023-02-03T15:42:09.170Z,74.29
2023-02-03T15:43:49.391Z,74.02
2023-02-03T15:45:29.945Z,74.77
2023-02-03T15:47:09.815Z,74.56
2023-02-03T15:48:49.991Z,74.8
2023-02-03T15:50:30.667Z,74.77
2023-02-03T15:52:10.456Z,75.75
2023-02-03T15:53:50.720Z,75.94
2023-02-03T15:55:31.311Z,76.04
2023-02-03T15:57:11.178Z,76.7
2023-02-03T15:58:51.366Z,77.14
2023-02-03T16:00:31.619Z,78.23
2023-02-03T16:02:11.916Z,77.98
2023-02-03T16:03:52.028Z,77.43
2023-02-03T16:05:32.746Z,77.13
2023-02-03T16:07:12.492Z,76.6
2023-02-03T16:08:52.679Z,76.29
2023-02-03T16:10:32.900Z,75.82
2023-02-03T16:12:13.109Z,76.41
2023-02-03T16:13:53.385Z,76.43
2023-02-03T16:15:33.544Z,76.15
2023-02-03T16:17:14.539Z,75.72
2023-02-03T16:18:53.995Z,75.95
2023-02-03T16:20:34.229Z,76.52
2023-02-03T16:22:14.437Z,76.48
2023-02-03T16:23:54.662Z,76.73
2023-02-03T16:25:35.006Z,76.88
2023-02-03T16:27:15.191Z,77.16
2023-02-03T16:28:55.363Z,77.41
2023-02-03T16:30:35.645Z,77.86
2023-02-03T16:32:15.785Z,77.69
2023-02-03T16:33:55.976Z,77.09
2023-02-03T16:35:36.238Z,76.68
2023-02-03T16:37:16.462Z,76.67
2023-02-03T16:38:56.678Z,76.47
2023-02-03T16:40:39.965Z,76.86
2023-02-03T16:42:17.160Z,76.69
2023-02-03T16:43:57.342Z,76.62
2023-02-03T16:45:37.667Z,76.45
2023-02-03T16:47:17.711Z,76.33
2023-02-03T16:48:57.927Z,75.55
2023-02-03T16:50:41.190Z,75.72
2023-02-03T16:52:18.332Z,75.74
2023-02-03T16:53:58.599Z,76.18
2023-02-03T16:55:38.869Z,76.17
2023-02-03T16:57:19.090Z,75.4
2023-02-03T16:58:59.372Z,75.61
2023-02-03T17:00:39.656Z,75.31
2023-02-03T17:02:23.032Z,75.68
2023-02-03T17:04:00.023Z,75.45
2023-02-03T17:05:40.244Z,75.75
2023-02-03T17:07:20.452Z,75.92
2023-02-03T17:09:00.636Z,75.34
2023-02-03T17:10:40.933Z,75.56
2023-02-03T17:12:21.134Z,75.95
2023-02-03T17:14:01.381Z,76.4
2023-02-03T17:15:41.669Z,75.87
2023-02-03T17:17:21.825Z,76.38
2023-02-03T17:19:02.095Z,76.33
2023-02-03T17:20:42.275Z,76.76
2023-02-03T17:22:22.475Z,76.71
2023-02-03T17:24:02.722Z,77.03
2023-02-03T17:25:42.935Z,76.59
2023-02-03T17:27:23.163Z,77.14
2023-02-03T17:29:03.705Z,76.97
2023-02-03T17:30:43.696Z,76.88
2023-02-03T17:32:23.871Z,76.85
2023-02-03T17:34:04.145Z,76.98
2023-02-03T17:35:44.371Z,76.59
2023-02-03T17:37:24.515Z,76.84
2023-02-03T17:54:06.859Z,77.02
2023-02-03T17:57:27.240Z,77.52
2023-02-03T17:59:07.503Z,77.61
2023-02-03T18:00:47.726Z,77.89
2023-02-03T18:02:27.982Z,78.28
2023-02-03T18:04:08.169Z,78.03
2023-02-03T18:05:48.384Z,78.54
2023-02-03T18:07:28.575Z,78.7
2023-02-03T18:09:08.881Z,78.58
2023-02-03T18:10:49.062Z,78.49
2023-02-03T18:12:29.307Z,78.43
2023-02-03T18:14:09.553Z,78.69
2023-02-03T18:15:49.845Z,78.57
2023-02-03T18:17:30.046Z,78.6
2023-02-03T18:19:10.321Z,78.91
2023-02-03T18:20:53.665Z,78.87
2023-02-03T18:22:30.757Z,78.86
2023-02-03T18:24:10.934Z,78.94
2023-02-03T18:25:51.117Z,78.7
2023-02-03T18:27:31.329Z,78.53
2023-02-03T18:29:11.565Z,78.25
2023-02-03T18:30:51.946Z,77.84
2023-02-03T18:32:32.123Z,77.85
2023-02-03T18:34:12.464Z,77.93
2023-02-03T18:35:52.585Z,76.9
2023-02-03T18:37:32.842Z,76.95
2023-02-03T18:39:13.188Z,76.72
2023-02-03T18:40:53.418Z,76.78
2023-02-03T18:42:33.684Z,76.73
2023-02-03T18:44:13.976Z,76.78
2023-02-03T18:45:54.257Z,76.99
2023-02-03T18:47:34.446Z,77.31
2023-02-03T18:49:14.781Z,77.12
2023-02-03T18:50:55.031Z,76.58
2023-02-03T18:52:35.455Z,76.5
2023-02-03T18:54:18.915Z,76.55
2023-02-03T18:55:56.286Z,76.47
2023-02-03T18:57:36.566Z,76.3
2023-02-03T18:59:16.824Z,76.38
2023-02-03T19:00:57.087Z,75.91
2023-02-03T19:02:37.515Z,75.78
2023-02-03T19:04:17.768Z,74.84
2023-02-03T19:05:58.066Z,74.88
2023-02-03T19:07:38.350Z,74.77
2023-02-03T19:09:18.540Z,73.85
2023-02-03T19:10:58.748Z,74.31
2023-02-03T19:12:38.978Z,74.34
2023-02-03T19:14:22.371Z,73.28
2023-02-03T19:15:59.496Z,73.96
2023-02-03T19:17:39.704Z,74.44
2023-02-03T19:19:22.989Z,74.65
2023-02-03T19:21:00.129Z,74.28
2023-02-03T19:22:40.375Z,74.12
2023-02-03T19:24:20.598Z,74.09
2023-02-03T19:26:00.813Z,74.5
2023-02-03T19:27:44.209Z,74.26
2023-02-03T19:29:21.340Z,74.68
2023-02-03T19:31:07.431Z,74.11
2023-02-03T19:32:41.774Z,74.51
2023-02-03T19:34:21.979Z,74.47
2023-02-03T19:36:02.131Z,74.56
2023-02-03T19:37:42.389Z,74.52
2023-02-03T19:39:22.663Z,74.43
2023-02-03T19:41:02.882Z,74.63
2023-02-03T19:42:43.079Z,75.17
2023-02-03T19:44:23.341Z,75.26
2023-02-03T19:46:03.633Z,75.18
2023-02-03T19:47:43.868Z,75.09
2023-02-03T19:49:24.116Z,75.08
2023-02-03T19:51:04.351Z,75.29
2023-02-03T19:52:44.591Z,75.29
2023-02-03T19:54:30.624Z,75.05
2023-02-03T19:56:10.885Z,75.22
2023-02-03T19:57:51.109Z,75.46
2023-02-03T19:59:31.319Z,74.97
2023-02-03T20:01:11.516Z,74.86
2023-02-03T20:02:51.813Z,75.14
2023-02-03T20:04:32.081Z,74.71
2023-02-03T20:06:12.244Z,75.01
2023-02-03T20:07:52.506Z,74.98
2023-02-03T20:09:32.715Z,75.21
2023-02-03T20:11:13.114Z,75.46
2023-02-03T20:12:53.206Z,75.43
2023-02-03T20:14:33.477Z,75.87
2023-02-03T20:16:13.645Z,75.76
2023-02-03T20:18:00.856Z,75.62
2023-02-03T20:19:34.099Z,75.72
2023-02-03T20:21:14.299Z,75.66
2023-02-03T20:22:54.597Z,75.79
2023-02-03T20:24:34.808Z,75.93
2023-02-03T20:26:15.075Z,76.18
2023-02-03T20:27:55.420Z,75.84
2023-02-03T20:29:35.640Z,75.34
2023-02-03T20:31:16.049Z,75
2023-02-03T20:32:56.144Z,75.27
2023-02-03T20:34:36.362Z,75.29
2023-02-03T20:36:16.589Z,75.47
2023-02-03T20:37:56.871Z,75.23
2023-02-03T20:39:37.093Z,74.98
2023-02-03T20:41:17.352Z,75.24
2023-02-03T20:42:57.555Z,75.05
2023-02-03T20:44:37.812Z,75.27
2023-02-03T20:46:18.143Z,74.97
2023-02-03T20:47:58.368Z,75.05
2023-02-03T20:49:38.532Z,75.27
2023-02-03T20:51:18.708Z,75.43
2023-02-03T20:52:58.913Z,75.51
2023-02-03T20:54:39.108Z,75.74
2023-02-03T20:56:19.284Z,75.66
2023-02-03T20:57:59.579Z,75.79
2023-02-03T20:59:39.836Z,75.88
2023-02-03T21:01:20.222Z,75.73
2023-02-03T21:03:00.332Z,75.95
2023-02-03T21:04:40.578Z,75.88
2023-02-03T21:06:20.882Z,75.98
2023-02-03T21:08:01.099Z,76.16
2023-02-03T21:09:41.333Z,75.98
2023-02-03T21:11:21.470Z,76.14
2023-02-03T21:13:01.663Z,76.4
2023-02-03T21:14:44.965Z,76.72
2023-02-03T21:16:22.184Z,76.22
2023-02-03T21:18:02.365Z,76
2023-02-03T21:19:42.591Z,75.95
2023-02-03T21:21:22.848Z,76.14
2023-02-03T21:23:03.147Z,76.59
2023-02-03T21:24:43.390Z,76.6
2023-02-03T21:26:23.610Z,76.14
2023-02-03T21:28:04.026Z,76.18
2023-02-03T21:29:44.246Z,76.21
2023-02-03T21:31:24.584Z,76.22
2023-02-03T21:33:04.709Z,76.23
2023-02-03T21:34:45.042Z,75.47
2023-02-03T21:36:25.243Z,75.62
2023-02-03T21:38:05.539Z,75.77
2023-02-03T21:39:45.736Z,75.6
2023-02-03T21:41:26.041Z,75.56
2023-02-03T21:43:09.255Z,75.65
2023-02-03T21:44:46.411Z,75.57
2023-02-03T21:46:26.888Z,75.75
2023-02-03T21:48:06.903Z,75.77
2023-02-03T21:49:47.128Z,76.05
2023-02-03T21:51:27.276Z,75.85
2023-02-03T21:53:07.533Z,76.17
2023-02-03T21:54:47.836Z,76.13
2023-02-03T21:56:28.090Z,76.49
2023-02-03T21:58:08.380Z,76.5
2023-02-03T21:59:48.621Z,76.23
2023-02-03T22:01:28.930Z,76.62
2023-02-03T22:03:09.160Z,77.22